Time;durP1;ratioP1;P1;durP2;ratioP2;P2;SDS_P1;SDS_P2;PMS_P1;PMS_P2;Temp;Humidity;BMP_temperature;BMP_pressure;BME280_temperature;BME280_humidity;BME280_pressure;Samples;Min_cycle;Max_cycle;Signal;HPM_P1;HPM_P2
2021/01/17 00:04:09;;;;;;;10.17;5.17;;;;;;;-3.41;100.00;98475.50;3652465;80;43628;-19
2021/01/17 00:09:15;;;;;;;8.30;4.80;;;;;;;-3.41;100.00;98462.33;3652512;80;44113;-20
2021/01/17 00:14:21;;;;;;;9.83;5.43;;;;;;;-3.45;100.00;98457.64;3663121;77;43453;-20
2021/01/17 00:19:26;;;;;;;8.73;4.70;;;;;;;-3.49;100.00;98456.10;3654210;80;43714;-19
2021/01/17 00:24:32;;;;;;;7.37;4.33;;;;;;;-3.51;100.00;98439.96;3652490;80;44027;-19
2021/01/17 00:29:37;;;;;;;7.37;4.83;;;;;;;-3.59;100.00;98436.39;3653407;80;43372;-19
2021/01/17 00:34:45;;;;;;;9.17;5.00;;;;;;;-3.65;100.00;98424.81;3652284;80;44067;-19
2021/01/17 00:39:51;;;;;;;9.93;5.30;;;;;;;-3.76;100.00;98419.59;3652759;80;43626;-20
2021/01/17 00:44:57;;;;;;;8.80;5.33;;;;;;;-3.83;100.00;98416.00;3653033;80;44067;-20
2021/01/17 00:50:02;;;;;;;8.53;4.90;;;;;;;-4.06;100.00;98416.12;3657524;79;43468;-20
2021/01/17 00:55:10;;;;;;;9.47;5.57;;;;;;;-4.09;100.00;98416.28;3709078;79;43690;-19
2021/01/17 01:00:21;;;;;;;8.40;5.00;;;;;;;-4.09;100.00;98412.33;3704558;79;43049;-20
2021/01/17 01:05:37;;;;;;;7.60;4.40;;;;;;;-4.20;100.00;98404.08;3702447;79;26417;-20
2021/01/17 01:10:43;;;;;;;6.80;4.40;;;;;;;-4.26;100.00;98401.70;3707719;80;44049;-20
2021/01/17 01:15:49;;;;;;;8.67;4.90;;;;;;;-4.33;100.00;98398.48;3707410;79;43686;-20
2021/01/17 01:20:55;;;;;;;7.40;4.47;;;;;;;-4.37;100.00;98393.83;3706782;79;44196;-20
2021/01/17 01:26:00;;;;;;;7.23;4.40;;;;;;;-4.47;100.00;98392.53;3716477;79;44670;-20
2021/01/17 01:31:06;;;;;;;7.60;4.57;;;;;;;-4.58;100.00;98387.73;3726598;79;43401;-19
2021/01/17 01:36:18;;;;;;;9.67;5.37;;;;;;;-4.74;100.00;98382.77;3707472;80;44122;-19
2021/01/17 01:41:28;;;;;;;9.47;5.47;;;;;;;-4.86;100.00;98374.94;3707459;80;43360;-19
2021/01/17 01:46:36;;;;;;;8.17;4.60;;;;;;;-4.88;100.00;98378.13;3707231;80;44448;-19
2021/01/17 01:51:42;;;;;;;10.27;5.50;;;;;;;-4.97;100.00;98371.00;3691882;79;43670;-20
2021/01/17 01:56:52;;;;;;;9.13;4.47;;;;;;;-5.05;100.00;98363.05;3652250;80;44108;-20
2021/01/17 02:01:59;;;;;;;8.10;4.67;;;;;;;-5.12;100.00;98359.84;3665166;80;43464;-20
2021/01/17 02:07:28;;;;;;;9.67;5.17;;;;;;;-5.15;100.00;98349.47;3653289;80;43624;-18
2021/01/17 02:12:37;;;;;;;8.93;4.97;;;;;;;-5.18;100.00;98345.20;3652434;80;43730;-18
2021/01/17 02:17:46;;;;;;;9.47;4.90;;;;;;;-5.23;100.00;98341.91;3653213;80;44067;-18
2021/01/17 02:22:58;;;;;;;10.13;5.43;;;;;;;-5.35;100.00;98339.31;3648772;80;43681;-19
2021/01/17 02:28:06;;;;;;;9.17;5.30;;;;;;;-5.48;100.00;98336.83;3652707;80;43397;-19
2021/01/17 02:33:15;;;;;;;12.77;5.67;;;;;;;-5.54;100.00;98343.62;3653069;80;43390;-21
2021/01/17 02:38:36;;;;;;;10.30;5.43;;;;;;;-5.55;100.00;98340.16;3652857;80;43319;-20
2021/01/17 02:43:44;;;;;;;8.70;5.00;;;;;;;-5.59;100.00;98330.69;3653126;80;44230;-19
2021/01/17 02:48:50;;;;;;;11.37;5.90;;;;;;;-5.63;100.00;98331.28;3653332;80;43717;-19
2021/01/17 02:54:02;;;;;;;8.97;5.13;;;;;;;-5.68;100.00;98324.03;3684881;79;43402;-19
2021/01/17 02:59:09;;;;;;;9.40;5.20;;;;;;;-5.75;100.00;98322.59;3704040;79;43346;-19
2021/01/17 03:04:18;;;;;;;11.20;5.90;;;;;;;-5.75;100.00;98317.34;3703610;79;44291;-19
2021/01/17 03:09:24;;;;;;;10.20;5.50;;;;;;;-5.76;100.00;98309.06;3705103;79;44070;-19
2021/01/17 03:14:34;;;;;;;11.20;5.73;;;;;;;-5.78;100.00;98306.52;3707129;79;43454;-19
2021/01/17 03:19:39;;;;;;;9.90;5.03;;;;;;;-5.82;100.00;98310.17;3705937;80;42517;-19
2021/01/17 03:24:46;;;;;;;10.93;5.63;;;;;;;-5.86;100.00;98310.36;3707368;80;44711;-19
2021/01/17 03:29:52;;;;;;;9.80;5.23;;;;;;;-5.85;100.00;98304.20;3707303;80;44101;-19
2021/01/17 03:34:59;;;;;;;11.57;5.67;;;;;;;-5.83;100.00;98312.87;3668687;80;44023;-19
2021/01/17 03:40:07;;;;;;;10.73;5.83;;;;;;;-5.78;100.00;98317.02;3705553;79;43126;-20
2021/01/17 03:45:13;;;;;;;10.30;5.30;;;;;;;-5.70;100.00;98323.23;3706552;79;43473;-20
2021/01/17 03:50:19;;;;;;;9.23;5.07;;;;;;;-5.66;100.00;98321.37;3705776;80;43401;-20
2021/01/17 03:55:25;;;;;;;11.57;5.60;;;;;;;-5.62;100.00;98324.24;3685700;79;44065;-20
2021/01/17 04:00:31;;;;;;;9.77;5.60;;;;;;;-5.64;100.00;98319.07;3681466;79;43221;-20
2021/01/17 04:05:36;;;;;;;8.57;4.73;;;;;;;-5.58;100.00;98325.84;3675569;79;43941;-20
2021/01/17 04:10:42;;;;;;;10.50;5.47;;;;;;;-5.55;100.00;98323.09;3668088;79;44051;-19
2021/01/17 04:15:48;;;;;;;11.20;5.40;;;;;;;-5.54;100.00;98316.06;3622926;80;44102;-19
2021/01/17 04:20:54;;;;;;;9.77;5.20;;;;;;;-5.53;100.00;98315.15;3681682;79;43338;-19
2021/01/17 04:26:00;;;;;;;9.93;5.67;;;;;;;-5.52;100.00;98322.11;3680923;79;44000;-19
2021/01/17 04:31:05;;;;;;;11.50;5.80;;;;;;;-5.58;100.00;98328.47;3681124;79;44493;-20
2021/01/17 04:36:12;;;;;;;10.83;5.97;;;;;;;-5.56;100.00;98325.33;3682222;79;43338;-20
2021/01/17 04:41:20;;;;;;;10.03;5.67;;;;;;;-5.64;100.00;98323.45;3671738;79;44057;-20
2021/01/17 04:46:28;;;;;;;10.57;5.80;;;;;;;-5.68;100.00;98314.02;3680923;79;44088;-20
2021/01/17 04:51:34;;;;;;;10.97;5.90;;;;;;;-5.78;100.00;98313.08;3682421;79;44064;-20
2021/01/17 04:56:43;;;;;;;10.40;5.37;;;;;;;-5.83;100.00;98314.18;3632978;79;44448;-19
2021/01/17 05:01:55;;;;;;;11.07;6.03;;;;;;;-5.85;100.00;98309.45;3629805;80;43360;-19
2021/01/17 05:07:03;;;;;;;11.87;5.90;;;;;;;-5.86;100.00;98307.73;3634689;80;43464;-20
2021/01/17 05:12:14;;;;;;;11.57;6.03;;;;;;;-5.90;100.00;98304.38;3631589;80;44029;-20
2021/01/17 05:17:23;;;;;;;11.27;6.20;;;;;;;-5.97;100.00;98306.39;3629549;80;44101;-20
2021/01/17 05:22:31;;;;;;;10.87;6.20;;;;;;;-6.07;100.00;98303.77;3629872;80;44452;-20
2021/01/17 05:27:38;;;;;;;11.93;5.93;;;;;;;-6.14;100.00;98303.16;3641919;80;44027;-20
2021/01/17 05:32:46;;;;;;;11.00;5.73;;;;;;;-6.23;100.00;98302.18;3630858;80;44073;-20
2021/01/17 05:37:54;;;;;;;10.93;5.90;;;;;;;-6.35;100.00;98306.14;3630056;80;43714;-19
2021/01/17 05:43:00;;;;;;;11.70;6.03;;;;;;;-6.42;100.00;98305.98;3619319;80;43657;-19
2021/01/17 05:48:08;;;;;;;11.63;6.20;;;;;;;-6.47;100.00;98302.67;3631020;80;43690;-20
2021/01/17 05:53:14;;;;;;;13.20;6.40;;;;;;;-6.49;100.00;98307.98;3630430;80;44018;-20
2021/01/17 05:58:29;;;;;;;13.37;6.73;;;;;;;-6.48;100.00;98309.70;3628683;80;44002;-20
2021/01/17 06:03:36;;;;;;;13.10;6.77;;;;;;;-6.48;100.00;98308.83;3630180;80;43763;-20
2021/01/17 06:08:46;;;;;;;12.43;6.07;;;;;;;-6.53;100.00;98311.18;3630463;80;44127;-20
2021/01/17 06:13:57;;;;;;;13.53;6.63;;;;;;;-6.46;100.00;98308.31;3630505;80;43718;-20
2021/01/17 06:19:05;;;;;;;13.27;6.30;;;;;;;-6.52;100.00;98302.37;3630964;80;44000;-20
2021/01/17 06:24:12;;;;;;;14.53;7.23;;;;;;;-6.52;100.00;98303.69;3630202;80;44022;-20
2021/01/17 06:29:18;;;;;;;13.60;6.77;;;;;;;-6.50;100.00;98305.80;3629814;80;43686;-20
2021/01/17 06:34:24;;;;;;;14.13;7.03;;;;;;;-6.50;100.00;98307.11;3658686;80;44075;-18
2021/01/17 06:39:30;;;;;;;13.37;6.60;;;;;;;-6.68;100.00;98315.67;3671930;80;43335;-19
2021/01/17 06:44:37;;;;;;;11.50;6.10;;;;;;;-6.83;100.00;98307.45;3632928;80;43694;-19
2021/01/17 06:49:44;;;;;;;14.13;6.67;;;;;;;-6.93;100.00;98313.94;3633296;80;43356;-18
2021/01/17 06:54:52;;;;;;;17.17;7.57;;;;;;;-6.97;100.00;98319.74;3633104;80;43455;-19
2021/01/17 06:59:59;;;;;;;14.10;7.10;;;;;;;-7.04;100.00;98313.46;3633489;81;44085;-18
2021/01/17 07:05:37;;;;;;;18.53;7.20;;;;;;;-7.08;100.00;98322.32;3631657;80;44017;-19
2021/01/17 07:10:46;;;;;;;14.03;6.73;;;;;;;-7.24;100.00;98325.49;3650090;80;44023;-18
2021/01/17 07:15:53;;;;;;;14.97;6.80;;;;;;;-7.27;100.00;98325.13;3627272;80;44058;-18
2021/01/17 07:21:02;;;;;;;13.90;6.90;;;;;;;-7.21;100.00;98329.29;3606156;80;44099;-21
2021/01/17 07:26:10;;;;;;;18.17;7.27;;;;;;;-7.14;100.00;98329.50;3630362;82;43424;-18
2021/01/17 07:31:19;;;;;;;14.43;7.20;;;;;;;-7.15;100.00;98342.62;3632126;81;44046;-18
2021/01/17 07:36:28;;;;;;;17.27;7.43;;;;;;;-7.19;100.00;98343.66;3632967;80;43397;-17
2021/01/17 07:41:37;;;;;;;15.83;7.53;;;;;;;-7.16;100.00;98352.25;3642524;80;44018;-17
2021/01/17 07:46:44;;;;;;;17.33;8.20;;;;;;;-7.33;100.00;98352.83;3693348;80;44576;-18
2021/01/17 07:51:52;;;;;;;13.77;6.90;;;;;;;-7.34;100.00;98369.44;3645033;79;44027;-18
2021/01/17 07:57:01;;;;;;;12.03;6.30;;;;;;;-7.49;100.00;98373.85;3631514;80;43720;-18
2021/01/17 08:02:09;;;;;;;15.53;7.50;;;;;;;-7.55;100.00;98377.52;3642829;80;42756;-18
2021/01/17 08:07:26;;;;;;;15.43;7.57;;;;;;;-7.83;100.00;98384.08;3649374;80;43976;-18
2021/01/17 08:12:43;;;;;;;15.63;7.57;;;;;;;-7.82;100.00;98382.72;3652619;80;43402;-18
2021/01/17 08:17:49;;;;;;;17.17;8.10;;;;;;;-7.30;100.00;98379.34;3663319;80;43356;-18
2021/01/17 08:23:11;;;;;;;15.43;7.53;;;;;;;-7.09;100.00;98376.91;3652283;80;43299;-19
2021/01/17 08:28:52;;;;;;;15.07;7.77;;;;;;;-6.91;100.00;98380.22;3650865;80;44189;-33
2021/01/17 08:34:15;;;;;;;17.70;8.33;;;;;;;-6.77;100.00;98389.36;3649544;80;43030;-17
2021/01/17 08:39:45;;;;;;;16.37;8.03;;;;;;;-6.54;100.00;98390.72;3648837;80;44159;-18
2021/01/17 08:44:51;;;;;;;14.23;7.70;;;;;;;-6.37;100.00;98387.92;3651659;80;44107;-18
2021/01/17 08:49:57;;;;;;;15.93;7.90;;;;;;;-6.21;100.00;98400.00;3652605;80;44567;-20
2021/01/17 08:55:04;;;;;;;16.50;8.43;;;;;;;-6.27;100.00;98401.55;3651877;80;43385;-19
2021/01/17 09:00:14;;;;;;;14.83;7.97;;;;;;;-6.20;100.00;98402.58;3652872;80;44603;-19
2021/01/17 09:05:21;;;;;;;16.60;8.40;;;;;;;-6.06;100.00;98413.02;3652002;80;43694;-19
2021/01/17 09:10:29;;;;;;;17.10;8.50;;;;;;;-5.91;100.00;98423.34;3653837;80;44519;-19
2021/01/17 09:15:37;;;;;;;15.83;7.73;;;;;;;-5.78;100.00;98432.91;3653916;81;44641;-18
2021/01/17 09:20:45;;;;;;;15.10;7.60;;;;;;;-5.67;100.00;98438.59;3651869;80;43460;-18
2021/01/17 09:25:56;;;;;;;15.90;7.73;;;;;;;-5.60;100.00;98443.16;3652133;80;43661;-18
2021/01/17 09:31:03;;;;;;;18.07;7.97;;;;;;;-5.54;100.00;98452.12;3653194;80;43491;-18
2021/01/17 09:36:11;;;;;;;16.87;8.17;;;;;;;-5.47;100.00;98456.67;3654180;81;44773;-18
2021/01/17 09:41:26;;;;;;;14.57;7.97;;;;;;;-5.36;100.00;98456.23;3627401;80;44067;-18
2021/01/17 09:46:34;;;;;;;17.37;8.37;;;;;;;-5.20;100.00;98457.78;3596735;81;44032;-19
2021/01/17 09:51:42;;;;;;;20.37;9.97;;;;;;;-5.12;100.00;98463.14;3631936;80;43401;-19
2021/01/17 09:56:49;;;;;;;15.77;8.33;;;;;;;-5.01;100.00;98471.91;3645513;79;44007;-18
2021/01/17 10:01:54;;;;;;;16.47;8.37;;;;;;;-5.05;100.00;98471.63;3670469;79;43341;-17
2021/01/17 10:07:00;;;;;;;16.60;8.20;;;;;;;-5.06;100.00;98481.73;3679265;79;43721;-18
2021/01/17 10:12:07;;;;;;;16.20;8.27;;;;;;;-4.88;100.00;98481.92;3679592;79;43984;-18
2021/01/17 10:17:14;;;;;;;16.97;8.57;;;;;;;-4.87;100.00;98482.28;3679634;79;43445;-18
2021/01/17 10:22:20;;;;;;;15.17;8.13;;;;;;;-4.68;100.00;98483.25;3678573;79;43056;-17
2021/01/17 10:27:29;;;;;;;19.07;9.73;;;;;;;-4.53;100.00;98480.43;3676846;79;43555;-18
2021/01/17 10:32:38;;;;;;;17.40;9.20;;;;;;;-4.39;100.00;98475.88;3667695;79;43691;-20
2021/01/17 10:37:44;;;;;;;18.97;8.53;;;;;;;-4.24;100.00;98483.59;3667049;79;43995;-18
2021/01/17 10:42:53;;;;;;;17.70;8.77;;;;;;;-4.20;100.00;98481.68;3667611;79;43499;-18
2021/01/17 10:48:03;;;;;;;15.93;8.73;;;;;;;-4.10;100.00;98490.00;3665999;79;44011;-19
2021/01/17 10:53:12;;;;;;;15.83;8.60;;;;;;;-3.96;100.00;98485.46;3666613;79;42977;-18
2021/01/17 10:58:21;;;;;;;17.20;8.90;;;;;;;-3.81;100.00;98482.13;3650805;79;43428;-19
2021/01/17 11:03:31;;;;;;;16.20;8.80;;;;;;;-3.68;100.00;98491.65;3642897;80;44130;-19
2021/01/17 11:08:42;;;;;;;18.07;9.57;;;;;;;-3.56;100.00;98480.55;3639695;80;43705;-19
2021/01/17 11:13:58;;;;;;;15.83;8.93;;;;;;;-3.47;100.00;98477.93;3634849;80;43473;-19
2021/01/17 11:19:05;;;;;;;19.37;9.50;;;;;;;-3.33;100.00;98479.06;3626065;81;43650;-21
2021/01/17 11:24:12;;;;;;;16.97;9.17;;;;;;;-3.17;100.00;98471.28;3624350;81;44190;-19
2021/01/17 11:29:18;;;;;;;15.73;8.60;;;;;;;-3.02;100.00;98474.98;3629400;81;44052;-19
2021/01/17 11:34:23;;;;;;;18.47;9.80;;;;;;;-2.91;100.00;98471.80;3623874;80;44600;-18
2021/01/17 11:39:29;;;;;;;20.60;10.37;;;;;;;-2.89;100.00;98469.50;3653978;80;44096;-18
2021/01/17 11:44:36;;;;;;;16.40;8.87;;;;;;;-2.90;100.00;98472.19;3653018;80;44543;-18
2021/01/17 11:49:42;;;;;;;19.80;10.47;;;;;;;-2.68;100.00;98469.36;3654313;81;44061;-18
2021/01/17 11:54:49;;;;;;;19.27;9.60;;;;;;;-2.54;100.00;98462.92;3654500;80;43693;-18
2021/01/17 12:00:04;;;;;;;17.67;9.00;;;;;;;-2.51;100.00;98464.06;3694762;79;43266;-18
2021/01/17 12:05:13;;;;;;;16.70;9.40;;;;;;;-2.43;100.00;98467.64;3703922;79;44102;-18
2021/01/17 12:10:21;;;;;;;18.70;9.23;;;;;;;-2.26;100.00;98461.49;3704336;79;43966;-18
2021/01/17 12:15:27;;;;;;;16.30;9.27;;;;;;;-2.16;100.00;98460.55;3715968;79;44082;-17
2021/01/17 12:20:33;;;;;;;15.27;8.57;;;;;;;-1.95;100.00;98451.98;3704459;79;44022;-18
2021/01/17 12:25:40;;;;;;;15.07;8.00;;;;;;;-1.93;100.00;98448.77;3703941;79;43678;-18
2021/01/17 12:30:46;;;;;;;14.73;7.87;;;;;;;-1.80;100.00;98449.42;3705234;79;43670;-17
2021/01/17 12:35:52;;;;;;;13.63;7.83;;;;;;;-1.75;100.00;98455.33;3704287;79;43787;-18
2021/01/17 12:40:58;;;;;;;14.37;7.83;;;;;;;-1.65;100.00;98451.25;3704904;79;44007;-18
2021/01/17 12:46:06;;;;;;;15.37;8.10;;;;;;;-1.48;100.00;98449.48;3704825;79;43462;-18
2021/01/17 12:51:13;;;;;;;12.40;7.83;;;;;;;-1.38;100.00;98446.70;3703454;79;43653;-17
2021/01/17 12:56:21;;;;;;;18.00;9.37;;;;;;;-1.40;100.00;98448.09;3703594;79;44521;-17
2021/01/17 13:01:28;;;;;;;15.33;9.30;;;;;;;-1.35;100.00;98453.13;3555449;82;43686;-19
2021/01/17 13:06:34;;;;;;;17.47;10.13;;;;;;;-1.62;100.00;98451.09;3563689;82;44125;-19
2021/01/17 13:11:40;;;;;;;19.23;10.23;;;;;;;-1.40;100.00;98449.91;3479914;85;43655;-17
2021/01/17 13:16:46;;;;;;;20.80;9.90;;;;;;;-1.37;100.00;98451.51;3555650;82;43408;-17
2021/01/17 13:21:51;;;;;;;16.30;9.70;;;;;;;-1.35;100.00;98453.13;3581173;82;42966;-17
2021/01/17 13:26:57;;;;;;;15.60;9.03;;;;;;;-1.49;100.00;98459.18;3569586;82;44866;-18
2021/01/17 13:32:03;;;;;;;16.93;9.33;;;;;;;-1.74;100.00;98457.03;3566805;82;43120;-18
2021/01/17 13:37:11;;;;;;;18.80;10.10;;;;;;;-1.46;100.00;98455.06;3567017;82;44234;-18
2021/01/17 13:42:21;;;;;;;15.00;9.03;;;;;;;-1.52;100.00;98463.78;3566663;83;44031;-18
2021/01/17 13:47:29;;;;;;;19.57;10.23;;;;;;;-1.42;100.00;98465.86;3566883;83;44140;-18
2021/01/17 13:52:35;;;;;;;19.60;10.63;;;;;;;-1.05;100.00;98465.57;3561747;82;44066;-18
2021/01/17 13:57:41;;;;;;;17.67;10.23;;;;;;;-0.68;100.00;98470.53;3583813;80;43433;-18
2021/01/17 14:02:48;;;;;;;17.20;9.10;;;;;;;-0.58;100.00;98468.20;3629640;80;44501;-17
2021/01/17 14:07:56;;;;;;;15.97;8.73;;;;;;;-0.46;99.30;98472.78;3629309;80;43425;-17
2021/01/17 14:13:02;;;;;;;19.07;10.27;;;;;;;-0.43;100.00;98484.98;3628781;80;44047;-17
2021/01/17 14:18:09;;;;;;;17.63;10.73;;;;;;;-0.29;97.45;98480.21;3629254;80;44523;-17
2021/01/17 14:23:14;;;;;;;17.87;10.03;;;;;;;-0.40;96.95;98484.80;3627352;80;43686;-18
2021/01/17 14:28:21;;;;;;;19.93;10.93;;;;;;;-0.70;97.37;98486.50;3627536;80;44473;-18
2021/01/17 14:33:26;;;;;;;19.80;11.33;;;;;;;-0.54;100.00;98493.56;3626880;80;43169;-19
2021/01/17 14:38:32;;;;;;;20.63;10.23;;;;;;;-0.57;98.95;98495.89;3629719;80;43694;-18
2021/01/17 14:43:38;;;;;;;17.77;9.87;;;;;;;-0.54;100.00;98498.37;3630840;80;43261;-19
2021/01/17 14:48:44;;;;;;;16.47;9.67;;;;;;;-0.65;98.89;98510.89;3629700;80;44063;-18
2021/01/17 14:53:50;;;;;;;20.97;12.30;;;;;;;-0.98;97.45;98517.16;3630763;80;43300;-18
2021/01/17 14:58:56;;;;;;;22.47;11.10;;;;;;;-1.11;98.96;98522.75;3635703;80;44120;-17
2021/01/17 15:04:03;;;;;;;19.57;11.00;;;;;;;-1.33;100.00;98539.80;3651626;80;43640;-17
2021/01/17 15:09:10;;;;;;;18.90;10.40;;;;;;;-1.43;100.00;98535.95;3630563;81;44060;-17
2021/01/17 15:14:16;;;;;;;19.97;9.97;;;;;;;-1.57;100.00;98544.14;3643264;80;44010;-19
2021/01/17 15:19:23;;;;;;;20.00;10.73;;;;;;;-1.65;100.00;98547.66;3653493;81;43182;-18
2021/01/17 15:24:31;;;;;;;18.70;10.40;;;;;;;-1.82;100.00;98547.23;3650597;80;43042;-19
2021/01/17 15:29:38;;;;;;;21.27;11.70;;;;;;;-2.09;100.00;98543.77;3652460;80;44015;-19
2021/01/17 15:34:47;;;;;;;21.23;11.70;;;;;;;-2.28;100.00;98553.55;3650868;80;43469;-19
2021/01/17 15:39:53;;;;;;;19.07;11.03;;;;;;;-2.45;100.00;98558.36;3652625;80;44041;-19
2021/01/17 15:45:13;;;;;;;21.87;12.20;;;;;;;-2.57;100.00;98565.08;3646245;80;44337;-19
2021/01/17 15:50:21;;;;;;;22.67;12.80;;;;;;;-2.71;100.00;98567.95;3653495;80;44440;-18
2021/01/17 15:55:27;;;;;;;69.57;31.03;;;;;;;-2.81;100.00;98578.07;3652269;80;44119;-20
2021/01/17 16:00:35;;;;;;;24.53;12.73;;;;;;;-2.96;100.00;98581.42;3637917;80;44121;-24
2021/01/17 16:05:41;;;;;;;26.50;14.37;;;;;;;-3.15;100.00;98586.25;3631228;80;42416;-17
2021/01/17 16:10:48;;;;;;;21.63;11.40;;;;;;;-3.28;100.00;98587.73;3631634;80;44037;-18
2021/01/17 16:15:54;;;;;;;25.47;12.63;;;;;;;-3.33;100.00;98593.22;3541387;82;43480;-19
2021/01/17 16:21:00;;;;;;;18.93;10.33;;;;;;;-3.41;100.00;98604.09;3626155;80;44528;-19
2021/01/17 16:26:07;;;;;;;18.53;11.10;;;;;;;-3.48;100.00;98614.53;3541472;82;43987;-19
2021/01/17 16:31:12;;;;;;;17.77;9.83;;;;;;;-3.64;100.00;98624.86;3631514;80;43377;-18
2021/01/17 16:36:21;;;;;;;20.70;10.53;;;;;;;-3.70;100.00;98626.94;3631180;80;44102;-18
2021/01/17 16:41:27;;;;;;;21.97;10.10;;;;;;;-3.94;100.00;98639.75;3542152;82;42710;-18
2021/01/17 16:46:35;;;;;;;19.60;9.87;;;;;;;-3.98;100.00;98647.84;3541386;84;43346;-18
2021/01/17 16:51:42;;;;;;;21.40;11.53;;;;;;;-3.96;100.00;98648.16;3647105;80;43237;-17
2021/01/17 16:56:48;;;;;;;23.40;11.90;;;;;;;-4.02;100.00;98645.33;3542693;84;44087;-20
2021/01/17 17:01:54;;;;;;;22.53;11.67;;;;;;;-4.12;100.00;98653.69;3643305;80;43387;-19
2021/01/17 17:07:04;;;;;;;22.87;11.57;;;;;;;-4.11;100.00;98653.61;3652612;80;43978;-18
2021/01/17 17:12:11;;;;;;;21.80;11.33;;;;;;;-4.06;100.00;98652.95;3655537;80;44423;-18
2021/01/17 17:17:17;;;;;;;20.00;10.73;;;;;;;-3.94;100.00;98658.17;3645892;80;43324;-18
2021/01/17 17:22:23;;;;;;;18.87;9.83;;;;;;;-3.87;100.00;98660.09;3655449;80;43766;-18
2021/01/17 17:27:30;;;;;;;17.33;9.50;;;;;;;-3.81;100.00;98659.81;3654014;80;44477;-19
2021/01/17 17:32:38;;;;;;;21.80;9.90;;;;;;;-3.80;100.00;98668.11;3654649;80;44592;-18
2021/01/17 17:37:44;;;;;;;18.97;10.20;;;;;;;-3.85;100.00;98666.59;3654457;80;43536;-18
2021/01/17 17:42:50;;;;;;;20.20;10.57;;;;;;;-3.83;100.00;98668.27;3654887;80;44055;-19
2021/01/17 17:47:57;;;;;;;19.13;10.40;;;;;;;-3.80;100.00;98662.00;3654287;80;44047;-19
2021/01/17 17:53:04;;;;;;;19.20;10.53;;;;;;;-3.77;100.00;98664.04;3655309;80;44040;-19
2021/01/17 17:58:09;;;;;;;19.57;10.30;;;;;;;-3.66;100.00;98669.30;3650939;80;44046;-19
2021/01/17 18:03:16;;;;;;;22.57;11.67;;;;;;;-3.62;100.00;98669.58;3655148;80;43338;-19
2021/01/17 18:08:21;;;;;;;21.00;10.60;;;;;;;-3.66;100.00;98671.94;3656529;80;44050;-19
2021/01/17 18:13:28;;;;;;;21.57;10.60;;;;;;;-3.70;100.00;98665.95;3657035;80;43723;-19
2021/01/17 18:18:34;;;;;;;20.97;10.53;;;;;;;-3.66;100.00;98673.25;3607022;80;43634;-19
2021/01/17 18:23:41;;;;;;;20.60;10.40;;;;;;;-3.62;100.00;98670.89;3655361;81;43769;-19
2021/01/17 18:28:47;;;;;;;21.10;10.13;;;;;;;-3.58;100.00;98671.14;3674044;80;43698;-18
2021/01/17 18:33:54;;;;;;;20.33;10.40;;;;;;;-3.52;100.00;98668.25;3654751;80;44643;-18
2021/01/17 18:39:00;;;;;;;18.03;9.73;;;;;;;-3.53;100.00;98661.75;3641661;79;43714;-18
2021/01/17 18:44:07;;;;;;;20.70;10.43;;;;;;;-3.50;100.00;98668.17;3591192;82;44145;-18
2021/01/17 18:49:14;;;;;;;20.20;9.97;;;;;;;-3.47;100.00;98663.62;3607144;81;44114;-17
2021/01/17 18:54:20;;;;;;;19.27;9.77;;;;;;;-3.45;100.00;98663.09;3652300;81;43255;-17
2021/01/17 18:59:27;;;;;;;20.50;10.03;;;;;;;-3.49;100.00;98660.67;3651547;80;44012;-19
2021/01/17 19:04:35;;;;;;;17.90;9.40;;;;;;;-3.51;100.00;98662.52;3652009;80;26322;-18
2021/01/17 19:09:41;;;;;;;18.50;9.60;;;;;;;-3.54;100.00;98661.34;3631341;81;43502;-18
2021/01/17 19:14:47;;;;;;;17.57;9.97;;;;;;;-3.56;100.00;98667.98;3607197;81;44612;-18
2021/01/17 19:19:53;;;;;;;18.90;9.73;;;;;;;-3.52;100.00;98666.94;3617499;81;44273;-18
2021/01/17 19:24:59;;;;;;;15.73;9.03;;;;;;;-3.46;100.00;98678.98;3626861;81;43706;-18
2021/01/17 19:30:09;;;;;;;18.30;8.87;;;;;;;-3.45;100.00;98668.37;3621542;80;44505;-17
2021/01/17 19:35:15;;;;;;;17.23;9.23;;;;;;;-3.46;100.00;98667.97;3630453;81;44455;-18
2021/01/17 19:40:21;;;;;;;18.37;9.40;;;;;;;-3.44;100.00;98666.61;3619627;81;44170;-18
2021/01/17 19:45:28;;;;;;;21.40;11.00;;;;;;;-3.41;100.00;98665.16;3628642;81;44015;-18
2021/01/17 19:50:34;;;;;;;20.27;10.10;;;;;;;-3.37;100.00;98663.25;3610514;81;43589;-18
2021/01/17 19:55:40;;;;;;;18.53;10.80;;;;;;;-3.38;100.00;98661.53;3622453;81;44061;-18
2021/01/17 20:00:46;;;;;;;21.63;11.17;;;;;;;-3.38;100.00;98674.23;3633019;80;43375;-19
2021/01/17 20:05:52;;;;;;;22.23;10.83;;;;;;;-3.37;100.00;98667.20;3637886;81;43464;-19
2021/01/17 20:10:59;;;;;;;27.87;11.93;;;;;;;-3.43;100.00;98675.75;3648949;81;43467;-19
2021/01/17 20:16:07;;;;;;;27.07;14.27;;;;;;;-3.47;100.00;98683.37;3621125;81;43472;-19
2021/01/17 20:21:17;;;;;;;22.63;11.83;;;;;;;-3.43;100.00;98681.02;3637224;81;43459;-20
2021/01/17 20:26:24;;;;;;;23.10;11.67;;;;;;;-3.38;100.00;98676.02;3626072;80;44475;-19
2021/01/17 20:31:33;;;;;;;26.30;14.03;;;;;;;-3.37;100.00;98669.83;3649353;81;44666;-19
2021/01/17 20:36:43;;;;;;;25.27;12.10;;;;;;;-3.31;100.00;98670.86;3627845;80;44034;-19
2021/01/17 20:41:49;;;;;;;27.97;12.80;;;;;;;-3.35;100.00;98678.05;3639346;81;43310;-20
2021/01/17 20:46:56;;;;;;;27.83;13.33;;;;;;;-3.35;100.00;98682.48;3652072;81;43346;-20
2021/01/17 20:52:03;;;;;;;24.13;12.73;;;;;;;-3.29;100.00;98672.97;3604315;81;44024;-20
2021/01/17 20:57:09;;;;;;;25.60;12.97;;;;;;;-3.25;100.00;98664.02;3592202;82;44601;-20
2021/01/17 21:02:15;;;;;;;23.93;12.73;;;;;;;-3.22;100.00;98666.49;3657597;80;43718;-20
2021/01/17 21:07:21;;;;;;;27.33;13.20;;;;;;;-3.21;100.00;98672.64;3734587;79;43132;-20
2021/01/17 21:12:29;;;;;;;24.87;12.80;;;;;;;-3.19;100.00;98667.69;3691557;79;43686;-20
2021/01/17 21:17:36;;;;;;;25.30;12.60;;;;;;;-3.20;100.00;98667.28;3644525;80;43111;-20
2021/01/17 21:22:43;;;;;;;21.87;11.73;;;;;;;-3.22;100.00;98663.86;3677223;80;44019;-20
2021/01/17 21:27:49;;;;;;;25.80;12.43;;;;;;;-3.20;100.00;98674.35;3684778;80;44051;-20
2021/01/17 21:32:55;;;;;;;25.73;12.20;;;;;;;-3.16;100.00;98675.46;3651180;80;44070;-22
2021/01/17 21:38:01;;;;;;;25.27;12.90;;;;;;;-3.07;100.00;98663.66;3680626;79;43350;-19
2021/01/17 21:43:08;;;;;;;23.90;13.30;;;;;;;-3.01;100.00;98666.47;3681549;80;43317;-20
2021/01/17 21:48:13;;;;;;;26.17;13.27;;;;;;;-3.00;100.00;98668.19;3672093;80;43124;-19
2021/01/17 21:53:20;;;;;;;24.33;12.30;;;;;;;-2.94;100.00;98664.78;3671667;80;44169;-20
2021/01/17 21:58:25;;;;;;;24.70;12.83;;;;;;;-2.95;100.00;98677.59;3664714;80;44476;-19
2021/01/17 22:03:31;;;;;;;24.30;12.63;;;;;;;-2.94;100.00;98674.00;3664591;80;44694;-19
2021/01/17 22:08:38;;;;;;;26.53;13.30;;;;;;;-2.87;100.00;98669.31;3613233;81;43998;-20
2021/01/17 22:13:45;;;;;;;24.40;12.93;;;;;;;-2.83;100.00;98676.16;3704478;80;43980;-20
2021/01/17 22:18:51;;;;;;;26.43;12.97;;;;;;;-2.76;100.00;98658.28;3695968;80;43556;-20
2021/01/17 22:23:56;;;;;;;26.20;12.43;;;;;;;-2.74;100.00;98656.88;3650958;81;44454;-20
2021/01/17 22:29:02;;;;;;;25.77;13.47;;;;;;;-2.72;100.00;98655.03;3631131;81;43397;-20
2021/01/17 22:34:08;;;;;;;26.13;13.07;;;;;;;-2.73;100.00;98664.73;3634212;81;43721;-20
2021/01/17 22:39:15;;;;;;;23.93;13.03;;;;;;;-2.73;100.00;98663.86;3646567;81;43700;-21
2021/01/17 22:44:21;;;;;;;28.90;14.23;;;;;;;-2.83;100.00;98653.75;3652027;80;43435;-20
2021/01/17 22:49:27;;;;;;;27.17;13.33;;;;;;;-2.83;100.00;98651.59;3643569;81;43715;-20
2021/01/17 22:54:33;;;;;;;27.20;13.60;;;;;;;-2.83;100.00;98655.06;3649799;81;44072;-20
2021/01/17 22:59:39;;;;;;;27.83;13.43;;;;;;;-2.78;100.00;98645.63;3642903;81;43686;-20
2021/01/17 23:04:45;;;;;;;30.53;15.17;;;;;;;-2.73;100.00;98658.14;3679892;80;44141;-20
2021/01/17 23:09:51;;;;;;;27.20;14.30;;;;;;;-2.70;100.00;98654.50;3680769;80;44649;-20
2021/01/17 23:14:57;;;;;;;28.67;13.57;;;;;;;-2.64;100.00;98657.70;3679457;79;44173;-20
2021/01/17 23:20:04;;;;;;;27.73;14.17;;;;;;;-2.64;100.00;98657.70;3730269;79;44093;-20
2021/01/17 23:25:13;;;;;;;29.83;14.67;;;;;;;-2.63;100.00;98649.31;3702532;80;44489;-20
2021/01/17 23:30:20;;;;;;;29.70;15.03;;;;;;;-2.61;100.00;98644.83;3681187;80;43332;-20